Time;durP1;ratioP1;P1;durP2;ratioP2;P2;SDS_P1;SDS_P2;PMS_P1;PMS_P2;Temp;Humidity;BMP_temperature;BMP_pressure;BME280_temperature;BME280_humidity;BME280_pressure;Samples;Min_cycle;Max_cycle;Signal;HPM_P1;HPM_P2
2022/03/10 00:01:47;;;;;;;21.13;13.13;;;3.70;72.40;;;;;;5045083;28;20051;-55
2022/03/10 00:04:13;;;;;;;21.55;13.18;;;3.70;72.20;;;;;;5049370;28;20692;-54
2022/03/10 00:06:39;;;;;;;23.50;12.20;;;3.80;72.00;;;;;;5046513;28;20040;-56
2022/03/10 00:09:04;;;;;;;18.38;12.10;;;3.70;71.90;;;;;;5042810;28;20047;-56
2022/03/10 00:11:30;;;;;;;20.02;12.48;;;3.70;72.00;;;;;;5031371;28;20048;-56
2022/03/10 00:13:56;;;;;;;19.65;12.45;;;3.80;72.30;;;;;;5051731;28;20482;-57
2022/03/10 00:16:22;;;;;;;19.00;12.32;;;3.80;72.20;;;;;;5045120;28;20060;-56
2022/03/10 00:18:48;;;;;;;17.80;11.07;;;3.70;71.80;;;;;;5053497;28;20037;-52
2022/03/10 00:21:14;;;;;;;18.13;11.13;;;3.70;71.40;;;;;;5048395;28;20047;-57
2022/03/10 00:23:40;;;;;;;20.02;12.38;;;3.70;71.30;;;;;;5058212;28;20040;-55
2022/03/10 00:26:05;;;;;;;17.70;11.98;;;3.80;71.40;;;;;;5046051;28;20060;-57
2022/03/10 00:28:32;;;;;;;17.13;11.88;;;3.80;71.30;;;;;;5047708;28;20450;-56
2022/03/10 00:30:58;;;;;;;18.30;11.75;;;3.70;71.50;;;;;;5044276;28;20077;-57
2022/03/10 00:33:24;;;;;;;21.13;13.25;;;3.70;71.90;;;;;;5044338;28;20068;-56
2022/03/10 00:35:49;;;;;;;17.55;13.05;;;3.60;72.40;;;;;;5035867;28;20033;-57
2022/03/10 00:38:15;;;;;;;17.77;11.52;;;3.50;72.50;;;;;;5051972;28;20037;-56
2022/03/10 00:40:41;;;;;;;17.33;12.18;;;3.50;73.30;;;;;;5044678;28;20040;-52
2022/03/10 00:43:14;;;;;;;18.30;12.20;;;3.40;73.00;;;;;;5044821;28;20385;-54
2022/03/10 00:45:40;;;;;;;16.83;10.88;;;3.30;73.10;;;;;;5041374;28;20037;-55
2022/03/10 00:48:06;;;;;;;20.70;12.18;;;3.30;73.30;;;;;;5045139;28;20105;-55
2022/03/10 00:50:32;;;;;;;15.90;11.45;;;3.30;73.10;;;;;;5032720;28;20064;-55
2022/03/10 00:52:59;;;;;;;18.10;11.73;;;3.30;73.00;;;;;;5036932;28;20075;-54
2022/03/10 00:55:25;;;;;;;19.48;11.80;;;3.40;73.10;;;;;;5038924;28;20049;-56
2022/03/10 00:57:51;;;;;;;20.15;10.57;;;3.30;72.70;;;;;;5040156;28;20102;-56
2022/03/10 01:00:18;;;;;;;19.15;11.80;;;3.30;72.50;;;;;;5045629;28;20037;-55
2022/03/10 01:02:43;;;;;;;18.83;11.80;;;3.30;72.30;;;;;;5049820;28;20036;-55
2022/03/10 01:05:10;;;;;;;19.17;12.23;;;3.30;71.80;;;;;;5041070;28;20102;-55
2022/03/10 01:07:36;;;;;;;20.10;11.50;;;3.30;71.70;;;;;;5044176;28;20174;-54
2022/03/10 01:10:05;;;;;;;18.27;12.07;;;3.40;71.90;;;;;;5052713;28;20049;-55
2022/03/10 01:12:31;;;;;;;19.77;13.38;;;3.40;72.00;;;;;;5028732;28;20068;-56
2022/03/10 01:14:57;;;;;;;17.95;11.57;;;3.40;72.00;;;;;;5044768;28;20041;-55
2022/03/10 01:17:23;;;;;;;21.42;12.38;;;3.30;71.90;;;;;;5028089;28;20052;-55
2022/03/10 01:19:49;;;;;;;19.60;12.38;;;3.30;72.00;;;;;;5045358;28;20041;-55
2022/03/10 01:22:15;;;;;;;20.02;11.38;;;3.30;72.00;;;;;;5050016;28;20056;-54
2022/03/10 01:24:41;;;;;;;19.00;11.88;;;3.30;72.30;;;;;;5043213;28;20051;-57
2022/03/10 01:27:10;;;;;;;17.35;11.82;;;3.20;72.40;;;;;;5041943;28;20129;-53
2022/03/10 01:29:36;;;;;;;22.27;12.40;;;3.10;72.60;;;;;;5022748;28;20048;-57
2022/03/10 01:32:03;;;;;;;18.52;11.73;;;3.10;72.90;;;;;;5037024;28;20077;-53
2022/03/10 01:34:28;;;;;;;18.55;11.00;;;3.10;73.00;;;;;;5044736;28;20083;-55
2022/03/10 01:36:54;;;;;;;18.45;12.90;;;3.10;73.20;;;;;;5044762;28;20041;-52
2022/03/10 01:39:20;;;;;;;18.17;11.10;;;3.10;73.20;;;;;;5044702;28;20041;-52
2022/03/10 01:41:46;;;;;;;16.40;10.15;;;3.10;73.10;;;;;;5044969;28;20399;-55
2022/03/10 01:44:11;;;;;;;16.77;11.35;;;3.10;73.10;;;;;;5050009;28;20063;-52
2022/03/10 01:46:37;;;;;;;16.30;11.40;;;3.10;73.50;;;;;;5034864;28;20037;-52
2022/03/10 01:49:05;;;;;;;18.20;11.65;;;3.10;73.80;;;;;;5021356;28;20043;-53
2022/03/10 01:51:32;;;;;;;15.43;11.05;;;3.10;73.60;;;;;;5039413;28;20087;-52
2022/03/10 01:53:58;;;;;;;19.65;11.20;;;3.10;73.20;;;;;;5043596;28;20040;-52
2022/03/10 01:56:25;;;;;;;18.73;12.32;;;3.10;73.00;;;;;;5042834;28;20410;-55
2022/03/10 01:58:52;;;;;;;17.25;11.25;;;3.10;73.70;;;;;;5042043;28;20041;-57
2022/03/10 02:01:18;;;;;;;19.23;11.93;;;3.00;73.80;;;;;;5043816;28;20443;-56
2022/03/10 02:03:45;;;;;;;20.83;12.50;;;3.00;73.90;;;;;;5057030;22;20060;-53
2022/03/10 02:06:11;;;;;;;19.65;12.55;;;2.90;73.80;;;;;;5084777;28;20119;-56
2022/03/10 02:11:22;;;;;;;19.15;11.73;;;2.80;74.00;;;;;;5040136;28;20057;-55
2022/03/10 02:13:48;;;;;;;20.55;12.70;;;2.80;74.40;;;;;;5041560;28;20075;-56
2022/03/10 02:19:00;;;;;;;21.63;11.95;;;2.90;74.80;;;;;;5034860;28;20095;-55
2022/03/10 02:21:27;;;;;;;18.80;13.18;;;2.90;75.10;;;;;;5040080;28;20118;-55
2022/03/10 02:23:53;;;;;;;18.60;11.63;;;2.90;75.10;;;;;;5037536;28;20522;-55
2022/03/10 02:26:19;;;;;;;17.23;11.75;;;2.90;74.90;;;;;;5044423;28;20116;-57
2022/03/10 02:28:45;;;;;;;16.98;11.23;;;2.90;75.10;;;;;;5036490;28;20061;-56
2022/03/10 02:31:11;;;;;;;19.48;12.02;;;2.90;75.10;;;;;;5049314;28;20319;-56
2022/03/10 02:33:37;;;;;;;19.92;11.82;;;2.90;75.10;;;;;;5044305;28;20684;-55
2022/03/10 02:36:04;;;;;;;18.85;13.02;;;2.90;74.80;;;;;;5045709;28;20128;-56
2022/03/10 02:38:30;;;;;;;18.38;12.13;;;2.90;74.90;;;;;;5041471;28;20506;-57
2022/03/10 02:40:56;;;;;;;18.75;12.18;;;2.80;74.60;;;;;;5030947;28;20037;-57
2022/03/10 02:43:23;;;;;;;18.65;11.68;;;2.80;74.80;;;;;;5036010;28;20412;-53
2022/03/10 02:45:49;;;;;;;19.75;12.52;;;2.80;74.50;;;;;;5021099;28;20091;-56
2022/03/10 02:48:16;;;;;;;17.85;11.43;;;2.80;74.30;;;;;;5008494;28;20480;-54
2022/03/10 02:50:43;;;;;;;16.25;10.57;;;2.80;74.30;;;;;;5002766;28;20036;-54
2022/03/10 02:53:10;;;;;;;19.20;11.73;;;2.70;74.20;;;;;;5035670;28;20446;-53
2022/03/10 02:55:37;;;;;;;19.08;11.48;;;2.70;74.30;;;;;;5057687;28;20749;-52
2022/03/10 02:58:02;;;;;;;19.65;13.75;;;2.70;74.40;;;;;;5041629;28;20556;-57
2022/03/10 03:00:29;;;;;;;18.80;11.27;;;2.70;74.40;;;;;;5041730;28;20036;-54
2022/03/10 03:02:55;;;;;;;20.95;12.52;;;2.70;74.40;;;;;;5042221;28;20036;-54
2022/03/10 03:05:21;;;;;;;19.77;12.52;;;2.60;74.50;;;;;;5042275;28;20043;-54
2022/03/10 03:07:48;;;;;;;22.15;13.00;;;2.60;74.10;;;;;;5036424;28;20041;-55
2022/03/10 03:10:14;;;;;;;19.20;11.15;;;2.60;74.30;;;;;;5041089;28;20041;-58
2022/03/10 03:12:47;;;;;;;20.83;12.43;;;2.60;74.00;;;;;;5045826;28;20644;-54
2022/03/10 03:15:28;;;;;;;17.27;11.95;;;2.60;73.90;;;;;;5043779;28;20055;-53
2022/03/10 03:17:54;;;;;;;18.65;11.77;;;2.60;74.00;;;;;;5046474;28;20055;-55
2022/03/10 03:20:20;;;;;;;17.20;11.00;;;2.60;73.80;;;;;;5046744;28;20484;-55
2022/03/10 03:22:45;;;;;;;17.15;11.75;;;2.50;73.70;;;;;;5049259;28;20072;-53
2022/03/10 03:25:17;;;;;;;18.55;11.68;;;2.50;73.80;;;;;;5032674;28;20294;-56
2022/03/10 03:27:42;;;;;;;20.40;12.65;;;2.50;73.90;;;;;;5056985;28;20056;-54
2022/03/10 03:30:09;;;;;;;18.20;11.77;;;2.50;73.90;;;;;;5041881;28;20041;-54
2022/03/10 03:32:35;;;;;;;21.42;12.93;;;2.40;74.00;;;;;;5041521;28;20127;-55
2022/03/10 03:35:01;;;;;;;18.02;11.75;;;2.40;74.10;;;;;;5041422;28;20124;-52
2022/03/10 03:37:27;;;;;;;23.05;11.90;;;2.40;74.10;;;;;;5045642;28;20151;-54
2022/03/10 03:39:52;;;;;;;19.17;12.25;;;2.40;74.10;;;;;;5046440;28;20037;-52
2022/03/10 03:42:18;;;;;;;19.40;12.23;;;2.40;74.00;;;;;;5048431;28;20038;-54
2022/03/10 03:44:44;;;;;;;18.80;11.80;;;2.40;73.80;;;;;;5045563;28;20075;-54
2022/03/10 03:47:09;;;;;;;20.88;12.35;;;2.40;73.80;;;;;;5037524;28;20128;-52
2022/03/10 03:49:35;;;;;;;19.33;12.40;;;2.40;73.80;;;;;;5038626;28;20793;-51
2022/03/10 03:52:01;;;;;;;19.23;12.43;;;2.40;74.10;;;;;;5030547;28;20053;-55
2022/03/10 03:54:27;;;;;;;19.15;12.75;;;2.40;74.20;;;;;;5035870;28;20041;-56
2022/03/10 03:56:52;;;;;;;21.08;12.10;;;2.40;74.20;;;;;;5043726;28;20163;-55
2022/03/10 03:59:20;;;;;;;25.63;13.85;;;2.40;74.40;;;;;;5046229;28;20102;-56
2022/03/10 04:01:46;;;;;;;20.08;12.57;;;2.40;74.40;;;;;;5041953;28;20624;-54
2022/03/10 04:04:12;;;;;;;19.55;12.40;;;2.40;74.20;;;;;;5043392;28;20067;-56
2022/03/10 04:06:37;;;;;;;17.73;11.98;;;2.40;74.20;;;;;;5041976;28;20131;-56
2022/03/10 04:09:03;;;;;;;18.88;12.50;;;2.40;74.20;;;;;;5032493;28;20359;-55
2022/03/10 04:11:29;;;;;;;18.13;11.25;;;2.40;74.40;;;;;;5024796;28;20049;-56
2022/03/10 04:13:55;;;;;;;19.27;11.90;;;2.40;74.30;;;;;;5047633;28;20402;-56
2022/03/10 04:16:21;;;;;;;19.70;12.82;;;2.40;74.30;;;;;;5046070;28;20041;-56
2022/03/10 04:18:47;;;;;;;22.08;12.35;;;2.40;74.50;;;;;;5048546;28;20033;-52
2022/03/10 04:21:12;;;;;;;20.17;13.02;;;2.50;74.50;;;;;;5038322;28;20408;-52
2022/03/10 04:23:38;;;;;;;21.52;13.52;;;2.50;74.50;;;;;;5046016;28;20457;-54
2022/03/10 04:26:04;;;;;;;20.58;12.60;;;2.40;74.40;;;;;;5034158;28;20098;-56
2022/03/10 04:28:30;;;;;;;19.23;12.80;;;2.40;74.40;;;;;;5042333;28;20037;-56
2022/03/10 04:30:55;;;;;;;20.40;12.57;;;2.40;74.90;;;;;;5043068;28;20049;-55
2022/03/10 04:33:22;;;;;;;18.10;12.75;;;2.50;75.00;;;;;;5051150;28;20407;-54
2022/03/10 04:35:51;;;;;;;20.85;12.70;;;2.40;74.90;;;;;;5022746;28;20048;-54
2022/03/10 04:38:17;;;;;;;22.15;12.38;;;2.40;74.90;;;;;;5038194;28;20048;-56
2022/03/10 04:40:42;;;;;;;19.70;12.45;;;2.40;74.90;;;;;;5039811;28;20036;-52
2022/03/10 04:43:08;;;;;;;20.17;12.63;;;2.40;75.10;;;;;;5021681;28;20048;-55
2022/03/10 04:45:34;;;;;;;22.02;13.05;;;2.40;74.90;;;;;;5038105;28;20053;-55
2022/03/10 04:48:00;;;;;;;19.13;11.68;;;2.40;74.90;;;;;;5049067;28;20036;-53
2022/03/10 04:50:26;;;;;;;21.55;14.05;;;2.40;74.90;;;;;;5043047;28;20059;-57
2022/03/10 04:52:51;;;;;;;19.60;12.82;;;2.40;75.40;;;;;;5036436;28;20091;-55
2022/03/10 04:55:17;;;;;;;20.38;13.10;;;2.40;75.10;;;;;;5032628;28;20620;-53
2022/03/10 04:57:43;;;;;;;23.42;14.82;;;2.40;75.40;;;;;;5049240;28;20051;-52
2022/03/10 05:00:11;;;;;;;21.88;13.27;;;2.40;75.70;;;;;;5025372;28;20056;-56
2022/03/10 05:02:38;;;;;;;20.35;12.18;;;2.30;75.30;;;;;;5045451;28;20083;-56
2022/03/10 05:05:05;;;;;;;21.98;14.52;;;2.30;75.50;;;;;;5036380;28;20045;-53
2022/03/10 05:07:31;;;;;;;22.27;13.00;;;2.40;75.60;;;;;;5042191;28;20048;-53
2022/03/10 05:09:58;;;;;;;20.65;12.00;;;2.40;76.00;;;;;;5039308;28;20103;-54
2022/03/10 05:12:24;;;;;;;18.73;12.98;;;2.30;75.50;;;;;;5024484;28;20036;-55
2022/03/10 05:14:50;;;;;;;21.45;13.32;;;2.30;75.50;;;;;;5041452;28;20400;-53
2022/03/10 05:17:15;;;;;;;23.33;14.55;;;2.30;75.60;;;;;;5043623;28;20110;-56
2022/03/10 05:19:41;;;;;;;24.30;14.57;;;2.30;75.80;;;;;;5038092;28;20040;-52
2022/03/10 05:22:07;;;;;;;21.95;13.10;;;2.30;76.00;;;;;;5036786;28;20112;-53
2022/03/10 05:24:33;;;;;;;18.83;13.82;;;2.20;76.10;;;;;;5037964;28;20033;-52
2022/03/10 05:27:00;;;;;;;25.85;14.50;;;2.20;76.20;;;;;;5024978;28;20485;-53
2022/03/10 05:29:26;;;;;;;22.55;14.40;;;2.20;76.00;;;;;;5038697;28;20202;-55
2022/03/10 05:31:52;;;;;;;24.73;15.40;;;2.20;76.20;;;;;;5034580;28;20037;-53
2022/03/10 05:34:18;;;;;;;23.13;14.30;;;2.20;76.10;;;;;;5040041;28;20045;-53
2022/03/10 05:36:44;;;;;;;22.20;14.07;;;2.10;76.30;;;;;;5043472;28;20033;-55
2022/03/10 05:39:10;;;;;;;22.23;14.57;;;2.10;76.10;;;;;;5034482;28;20091;-52
2022/03/10 05:41:35;;;;;;;25.35;14.82;;;2.10;76.00;;;;;;5019492;28;20118;-52
2022/03/10 05:44:01;;;;;;;21.98;15.23;;;2.10;75.90;;;;;;5035578;28;20049;-55
2022/03/10 05:46:27;;;;;;;22.13;14.43;;;2.10;76.20;;;;;;5041979;28;20037;-57
2022/03/10 05:48:53;;;;;;;21.88;14.32;;;2.10;76.60;;;;;;5040351;28;20139;-53
2022/03/10 05:51:19;;;;;;;23.75;13.95;;;2.10;76.20;;;;;;5046214;28;20487;-53
2022/03/10 05:53:45;;;;;;;25.73;15.45;;;2.10;76.30;;;;;;5039556;28;20049;-53
2022/03/10 05:56:11;;;;;;;23.48;14.93;;;2.10;76.40;;;;;;5037447;28;20055;-57
2022/03/10 05:58:36;;;;;;;18.77;13.20;;;2.10;76.30;;;;;;5042604;28;20391;-53
2022/03/10 06:01:02;;;;;;;21.45;13.52;;;2.10;76.40;;;;;;5037776;28;20083;-55
2022/03/10 06:03:28;;;;;;;22.88;13.93;;;2.10;76.50;;;;;;5035014;28;20063;-56
2022/03/10 06:05:53;;;;;;;23.23;14.10;;;2.10;76.60;;;;;;5046751;28;20034;-53
2022/03/10 06:08:19;;;;;;;18.42;12.32;;;2.10;77.00;;;;;;5044903;28;20481;-56
2022/03/10 06:10:45;;;;;;;22.08;12.95;;;2.20;77.60;;;;;;5038998;28;20059;-58
2022/03/10 06:13:10;;;;;;;24.92;15.27;;;2.20;77.10;;;;;;5022415;28;20045;-54
2022/03/10 06:15:36;;;;;;;24.27;13.98;;;2.20;76.70;;;;;;5057603;28;20400;-56
2022/03/10 06:18:02;;;;;;;23.25;14.57;;;2.10;76.50;;;;;;5040431;28;20474;-57
2022/03/10 06:20:30;;;;;;;21.33;13.00;;;2.10;76.70;;;;;;5023032;28;20036;-56
2022/03/10 06:22:56;;;;;;;26.48;14.63;;;2.10;76.70;;;;;;5036022;28;20075;-56
2022/03/10 06:25:22;;;;;;;24.08;14.30;;;2.10;77.00;;;;;;5039281;28;20492;-54
2022/03/10 06:27:48;;;;;;;25.90;14.27;;;2.10;77.20;;;;;;5038657;28;20109;-55
2022/03/10 06:30:14;;;;;;;22.02;13.85;;;2.20;77.30;;;;;;5038835;28;20534;-55
2022/03/10 06:32:40;;;;;;;19.80;13.05;;;2.20;77.20;;;;;;5036813;28;20041;-55
2022/03/10 06:35:06;;;;;;;24.45;13.43;;;2.20;76.90;;;;;;5032454;28;21030;-55
2022/03/10 06:37:32;;;;;;;23.58;13.63;;;2.20;77.00;;;;;;5025083;28;20056;-54
2022/03/10 06:39:58;;;;;;;18.95;13.00;;;2.40;77.20;;;;;;5033492;28;20065;-53
2022/03/10 06:42:24;;;;;;;26.35;13.27;;;2.30;77.10;;;;;;5013810;28;20118;-55
2022/03/10 06:44:50;;;;;;;19.63;13.45;;;2.40;77.10;;;;;;5058655;28;20033;-57
2022/03/10 06:47:16;;;;;;;23.83;14.10;;;2.40;77.00;;;;;;5042931;28;20052;-57
2022/03/10 06:49:42;;;;;;;23.38;14.38;;;2.40;76.70;;;;;;5050702;28;20480;-56
2022/03/10 06:52:10;;;;;;;21.23;13.32;;;2.50;77.10;;;;;;5037456;28;20056;-54
2022/03/10 06:54:37;;;;;;;24.45;15.02;;;2.80;77.00;;;;;;5048252;28;20061;-56
2022/03/10 06:57:03;;;;;;;25.73;14.77;;;3.40;76.30;;;;;;5046582;28;20136;-54
2022/03/10 06:59:29;;;;;;;23.65;14.05;;;3.70;75.10;;;;;;5038166;28;20044;-55
2022/03/10 07:01:55;;;;;;;23.30;14.50;;;4.00;74.40;;;;;;5035743;28;20037;-57
2022/03/10 07:04:21;;;;;;;22.60;12.88;;;4.50;73.40;;;;;;5052906;28;20550;-55
2022/03/10 07:06:47;;;;;;;22.83;14.82;;;4.80;72.10;;;;;;5026111;28;20048;-56
2022/03/10 07:09:13;;;;;;;24.27;14.43;;;5.00;70.90;;;;;;5021442;28;20044;-55
2022/03/10 07:11:39;;;;;;;23.85;14.82;;;5.20;70.30;;;;;;5041827;28;20048;-54
2022/03/10 07:14:04;;;;;;;21.27;14.90;;;5.10;70.40;;;;;;5042584;28;20047;-57
2022/03/10 07:16:30;;;;;;;22.30;14.65;;;5.00;70.30;;;;;;5029947;28;20044;-54
2022/03/10 07:18:56;;;;;;;22.42;12.68;;;4.80;70.90;;;;;;5039001;28;20067;-55
2022/03/10 07:21:22;;;;;;;24.33;14.00;;;4.70;71.40;;;;;;5041285;28;20716;-52
2022/03/10 07:23:49;;;;;;;22.52;14.00;;;4.60;71.60;;;;;;5046248;28;20488;-53
2022/03/10 07:26:18;;;;;;;21.83;13.52;;;4.60;72.40;;;;;;5040260;28;20210;-56
2022/03/10 07:28:44;;;;;;;22.33;14.30;;;4.70;72.70;;;;;;5040909;28;20073;-56
2022/03/10 07:31:10;;;;;;;27.38;15.68;;;4.70;72.50;;;;;;5040403;28;20104;-57
2022/03/10 07:33:36;;;;;;;24.35;14.88;;;4.70;72.60;;;;;;5037404;28;20535;-58
2022/03/10 07:36:02;;;;;;;29.58;14.32;;;4.70;72.30;;;;;;5040187;28;20641;-54
2022/03/10 07:38:27;;;;;;;23.70;13.38;;;4.80;72.60;;;;;;5049730;28;20071;-53
2022/03/10 07:40:54;;;;;;;21.80;14.68;;;4.80;71.90;;;;;;5037862;28;20036;-53
2022/03/10 07:43:20;;;;;;;21.30;14.25;;;4.80;71.70;;;;;;5047173;28;20059;-54
2022/03/10 07:45:46;;;;;;;21.35;14.13;;;4.90;72.10;;;;;;5042292;28;20041;-55
2022/03/10 07:48:12;;;;;;;21.42;13.75;;;4.80;72.00;;;;;;5027798;28;20496;-53
2022/03/10 07:50:38;;;;;;;26.25;15.13;;;5.00;71.60;;;;;;5047350;28;20041;-56
2022/03/10 07:53:04;;;;;;;25.63;14.95;;;4.90;71.20;;;;;;5044785;28;20033;-57
2022/03/10 07:55:30;;;;;;;22.20;13.85;;;5.00;71.30;;;;;;5035472;28;20033;-57
2022/03/10 07:57:56;;;;;;;22.40;13.90;;;5.10;71.50;;;;;;5027828;28;20208;-57
2022/03/10 08:00:22;;;;;;;21.33;14.05;;;5.20;71.30;;;;;;5042111;28;20033;-56
2022/03/10 08:02:47;;;;;;;26.65;14.27;;;5.30;71.50;;;;;;5044028;28;20044;-57
2022/03/10 08:05:13;;;;;;;24.15;14.57;;;5.40;70.50;;;;;;5040379;28;20556;-58
2022/03/10 08:07:39;;;;;;;21.73;14.63;;;5.50;70.60;;;;;;5041912;28;20420;-55
2022/03/10 08:10:06;;;;;;;21.20;13.30;;;5.60;70.00;;;;;;5032578;28;20054;-56
2022/03/10 08:12:33;;;;;;;22.92;14.40;;;5.70;70.30;;;;;;5046650;28;20036;-57
2022/03/10 08:15:00;;;;;;;21.65;13.63;;;5.80;70.00;;;;;;5034681;28;20562;-55
2022/03/10 08:17:25;;;;;;;22.50;13.95;;;5.90;70.00;;;;;;5036036;28;20045;-63
2022/03/10 08:19:52;;;;;;;25.35;14.00;;;6.10;69.90;;;;;;5045805;28;20089;-57
2022/03/10 08:22:19;;;;;;;22.05;13.55;;;6.20;69.40;;;;;;5050586;28;20433;-56
2022/03/10 08:24:45;;;;;;;27.75;15.00;;;6.30;69.00;;;;;;5039545;28;20055;-57
2022/03/10 08:27:12;;;;;;;23.67;14.45;;;6.40;68.90;;;;;;5037796;28;20106;-57
2022/03/10 08:29:37;;;;;;;21.45;14.20;;;6.50;68.20;;;;;;5044970;28;20642;-56
2022/03/10 08:32:04;;;;;;;23.42;14.75;;;6.60;68.70;;;;;;5033865;28;20051;-61
2022/03/10 08:34:30;;;;;;;21.88;14.57;;;6.70;68.20;;;;;;5043602;28;20502;-58
2022/03/10 08:36:56;;;;;;;24.13;15.85;;;6.80;68.10;;;;;;5037450;28;20136;-55
2022/03/10 08:39:22;;;;;;;31.45;16.00;;;6.90;67.50;;;;;;5042628;28;20041;-58
2022/03/10 08:41:49;;;;;;;24.50;14.27;;;7.00;67.30;;;;;;5028662;28;20040;-56
2022/03/10 08:44:16;;;;;;;24.85;15.93;;;7.20;67.20;;;;;;5019590;28;20045;-57
2022/03/10 08:46:42;;;;;;;23.58;14.85;;;7.40;66.70;;;;;;5032259;28;20037;-62
2022/03/10 08:49:08;;;;;;;23.08;15.73;;;7.50;67.00;;;;;;5009922;28;20084;-57
2022/03/10 08:51:34;;;;;;;23.33;14.90;;;7.70;66.90;;;;;;5039837;28;20065;-56
2022/03/10 08:53:59;;;;;;;24.13;14.32;;;7.80;66.10;;;;;;5026255;28;20045;-56
2022/03/10 08:56:25;;;;;;;23.33;14.23;;;7.90;65.80;;;;;;5043826;28;20511;-58
2022/03/10 08:58:51;;;;;;;22.17;14.65;;;8.00;64.80;;;;;;5045442;28;20032;-55
2022/03/10 09:01:17;;;;;;;20.67;13.55;;;8.00;65.10;;;;;;5045187;28;20492;-62
2022/03/10 09:03:43;;;;;;;23.40;13.93;;;8.20;65.10;;;;;;5047161;28;20047;-59
2022/03/10 09:06:12;;;;;;;23.98;14.68;;;8.30;64.50;;;;;;5035962;28;20041;-58
2022/03/10 09:08:38;;;;;;;25.67;14.70;;;8.30;64.30;;;;;;5024625;28;20130;-58
2022/03/10 09:11:04;;;;;;;24.35;14.63;;;8.50;64.20;;;;;;5038872;28;20044;-58
2022/03/10 09:13:30;;;;;;;25.55;14.52;;;8.60;64.00;;;;;;5030159;28;20513;-58
2022/03/10 09:15:56;;;;;;;22.48;14.93;;;8.70;63.90;;;;;;5037066;28;20324;-61
2022/03/10 09:18:22;;;;;;;22.10;14.25;;;8.80;63.60;;;;;;5035542;28;20045;-59
2022/03/10 09:20:47;;;;;;;21.77;13.88;;;9.00;63.80;;;;;;5043224;28;20523;-58
2022/03/10 09:23:13;;;;;;;27.13;14.70;;;9.00;63.00;;;;;;5050173;28;20049;-54
2022/03/10 09:25:39;;;;;;;23.45;14.48;;;9.20;63.10;;;;;;5038263;28;20075;-56
2022/03/10 09:28:05;;;;;;;27.45;16.55;;;9.30;62.10;;;;;;5030797;28;20049;-57
2022/03/10 09:30:31;;;;;;;22.98;14.85;;;9.40;62.40;;;;;;5046657;28;20078;-57
2022/03/10 09:32:57;;;;;;;24.52;16.02;;;9.50;62.80;;;;;;5022289;28;20546;-60
2022/03/10 09:35:24;;;;;;;24.83;14.48;;;9.70;62.50;;;;;;5034640;28;20037;-55
2022/03/10 09:37:49;;;;;;;22.98;14.50;;;9.80;62.20;;;;;;5033352;28;20172;-56
2022/03/10 09:40:15;;;;;;;23.92;15.52;;;9.90;61.40;;;;;;5037719;28;20056;-55
2022/03/10 09:42:42;;;;;;;24.55;15.20;;;10.10;61.50;;;;;;5042222;28;20032;-58
2022/03/10 09:45:10;;;;;;;24.58;15.10;;;10.30;61.60;;;;;;5035456;28;20044;-58
2022/03/10 09:47:38;;;;;;;27.65;16.83;;;10.50;62.10;;;;;;5043139;28;20071;-59
2022/03/10 09:50:07;;;;;;;26.98;16.95;;;10.60;61.20;;;;;;5017590;28;20208;-56
2022/03/10 09:52:33;;;;;;;25.00;15.57;;;10.80;61.00;;;;;;5045711;28;20191;-56
2022/03/10 09:54:59;;;;;;;25.85;16.17;;;10.90;60.70;;;;;;5040282;28;20045;-57
2022/03/10 09:57:25;;;;;;;21.50;15.50;;;11.10;60.50;;;;;;5039092;28;20041;-56
2022/03/10 09:59:55;;;;;;;26.05;15.80;;;11.20;60.00;;;;;;5041037;28;20178;-62
2022/03/10 10:02:21;;;;;;;24.10;16.23;;;11.30;59.40;;;;;;5040198;28;20296;-55
2022/03/10 10:04:48;;;;;;;23.63;16.45;;;11.40;59.20;;;;;;5043409;28;20037;-56
2022/03/10 10:07:15;;;;;;;25.25;16.77;;;11.60;59.90;;;;;;5049367;28;20142;-54
2022/03/10 10:09:43;;;;;;;24.05;15.73;;;11.80;59.50;;;;;;5041726;28;20040;-56
2022/03/10 10:12:11;;;;;;;26.85;16.50;;;11.90;58.90;;;;;;5041263;28;20053;-55
2022/03/10 10:14:45;;;;;;;25.17;17.30;;;12.00;58.90;;;;;;5049325;28;20040;-59
2022/03/10 10:17:11;;;;;;;23.00;15.98;;;12.10;58.70;;;;;;5042808;28;20069;-56
2022/03/10 10:19:39;;;;;;;24.73;17.33;;;12.30;58.90;;;;;;5049669;28;20117;-56
2022/03/10 10:22:16;;;;;;;26.60;15.85;;;12.50;58.20;;;;;;5019376;28;20052;-53
2022/03/10 10:24:50;;;;;;;23.83;16.60;;;12.50;57.60;;;;;;5045861;28;20045;-60
2022/03/10 10:27:21;;;;;;;27.92;17.90;;;12.70;58.10;;;;;;5041038;28;20163;-57
2022/03/10 10:29:53;;;;;;;26.42;17.60;;;12.80;57.70;;;;;;5043414;28;20634;-53
2022/03/10 10:32:33;;;;;;;24.52;16.73;;;13.00;57.60;;;;;;5044626;28;20041;-58
2022/03/10 10:35:10;;;;;;;24.75;16.58;;;13.10;57.20;;;;;;5015966;28;20252;-54
2022/03/10 10:37:42;;;;;;;24.80;16.27;;;13.30;57.60;;;;;;5047134;28;20403;-54
2022/03/10 10:40:09;;;;;;;25.80;17.92;;;13.40;57.30;;;;;;5043555;28;20551;-53
2022/03/10 10:42:39;;;;;;;24.25;16.38;;;13.30;54.40;;;;;;5050580;28;20093;-52
2022/03/10 10:45:28;;;;;;;24.17;17.20;;;13.50;55.70;;;;;;5049921;28;20041;-56
2022/03/10 10:48:08;;;;;;;26.00;17.40;;;13.70;55.60;;;;;;5052888;28;20036;-57
2022/03/10 10:50:42;;;;;;;28.95;17.13;;;13.60;54.80;;;;;;5051749;28;20047;-61
2022/03/10 10:53:08;;;;;;;25.73;17.20;;;13.70;54.10;;;;;;5041521;28;20096;-55
2022/03/10 10:55:41;;;;;;;25.02;17.13;;;13.70;54.90;;;;;;5045127;28;20073;-54
2022/03/10 10:58:16;;;;;;;25.17;17.67;;;13.70;54.80;;;;;;5041103;28;20642;-58
2022/03/10 11:00:47;;;;;;;26.35;18.33;;;13.90;55.30;;;;;;5046851;28;20032;-61
2022/03/10 11:03:28;;;;;;;29.60;18.90;;;14.10;54.80;;;;;;5048336;28;20361;-55
2022/03/10 11:05:55;;;;;;;24.20;17.27;;;14.20;54.60;;;;;;5044852;28;20051;-58
2022/03/10 11:08:23;;;;;;;27.48;17.45;;;14.30;52.90;;;;;;5047729;28;20889;-57
2022/03/10 11:10:51;;;;;;;29.65;18.25;;;14.30;53.90;;;;;;5061608;28;20499;-58
2022/03/10 11:13:17;;;;;;;23.50;16.10;;;14.40;53.50;;;;;;5037194;28;20132;-56
2022/03/10 11:15:44;;;;;;;25.05;17.25;;;14.60;53.50;;;;;;5028106;28;20135;-57
2022/03/10 11:18:13;;;;;;;24.80;16.55;;;14.70;53.90;;;;;;5045072;28;20174;-55
2022/03/10 11:20:41;;;;;;;27.30;17.85;;;14.80;54.60;;;;;;5045877;28;20465;-57
2022/03/10 11:23:32;;;;;;;23.70;16.65;;;14.80;52.90;;;;;;5044621;28;20044;-57
2022/03/10 11:26:07;;;;;;;26.67;17.95;;;14.90;51.90;;;;;;5035878;28;20424;-56
2022/03/10 11:28:36;;;;;;;23.98;17.02;;;15.00;51.70;;;;;;5040671;28;20028;-56
2022/03/10 11:31:09;;;;;;;29.50;17.60;;;15.10;51.50;;;;;;5036980;28;20075;-56
2022/03/10 11:33:37;;;;;;;26.75;17.75;;;15.20;52.00;;;;;;5023181;28;20579;-53
2022/03/10 11:36:27;;;;;;;27.15;18.80;;;15.20;51.80;;;;;;5044399;28;20048;-56
2022/03/10 11:38:57;;;;;;;29.73;18.58;;;15.20;51.50;;;;;;5045486;28;20048;-53
2022/03/10 11:41:27;;;;;;;29.42;18.63;;;15.10;50.70;;;;;;5038557;28;20473;-58
2022/03/10 11:43:58;;;;;;;24.63;18.02;;;15.20;51.90;;;;;;5037554;28;20119;-56
2022/03/10 11:46:26;;;;;;;31.38;19.10;;;14.90;51.00;;;;;;5030023;28;20090;-52
2022/03/10 11:49:14;;;;;;;28.83;19.45;;;14.80;51.40;;;;;;5041141;28;20466;-56
2022/03/10 11:51:44;;;;;;;27.85;19.23;;;14.80;51.20;;;;;;5037467;28;20396;-56
2022/03/10 11:54:11;;;;;;;26.55;18.35;;;14.80;52.00;;;;;;5060147;28;20147;-56
2022/03/10 11:56:43;;;;;;;26.50;18.00;;;14.80;51.30;;;;;;5033530;28;20048;-53
2022/03/10 11:59:21;;;;;;;24.40;17.25;;;15.00;51.40;;;;;;5042814;28;20048;-52
2022/03/10 12:01:47;;;;;;;30.83;20.00;;;15.20;51.40;;;;;;5037699;28;20033;-55
2022/03/10 12:04:18;;;;;;;32.08;20.77;;;15.20;50.70;;;;;;5043821;28;20045;-55
2022/03/10 12:06:55;;;;;;;24.70;18.70;;;15.30;51.50;;;;;;5047413;28;20065;-55
2022/03/10 12:09:41;;;;;;;27.35;18.88;;;15.50;50.90;;;;;;5040484;28;20049;-58
2022/03/10 12:12:20;;;;;;;27.33;18.35;;;15.50;50.10;;;;;;5052662;28;20459;-55
2022/03/10 12:14:47;;;;;;;27.45;18.25;;;15.50;51.10;;;;;;5056911;28;20529;-56
2022/03/10 12:17:52;;;;;;;27.83;19.10;;;15.50;51.10;;;;;;5029684;28;20048;-54
2022/03/10 12:20:23;;;;;;;30.05;19.02;;;15.50;50.00;;;;;;5042731;28;20235;-54
2022/03/10 12:23:07;;;;;;;27.95;19.20;;;15.50;51.10;;;;;;5055302;28;20181;-53
2022/03/10 12:25:45;;;;;;;27.33;19.63;;;15.70;50.20;;;;;;5044686;28;20049;-55
2022/03/10 12:28:20;;;;;;;28.55;20.30;;;15.90;51.20;;;;;;5050727;28;20504;-57
2022/03/10 12:30:49;;;;;;;26.35;18.38;;;16.00;49.60;;;;;;5046624;28;20049;-56
2022/03/10 12:33:16;;;;;;;30.65;19.63;;;16.00;49.20;;;;;;5027132;28;20036;-54
2022/03/10 12:35:42;;;;;;;27.77;18.45;;;16.20;49.70;;;;;;5042958;28;20071;-55
2022/03/10 12:38:09;;;;;;;28.42;19.42;;;16.20;47.30;;;;;;5038009;28;20125;-54
2022/03/10 12:40:37;;;;;;;27.58;18.45;;;16.30;49.30;;;;;;5032914;28;20648;-54
2022/03/10 12:43:08;;;;;;;27.23;19.02;;;16.20;48.20;;;;;;5041621;28;20037;-55